Time;durP1;ratioP1;P1;durP2;ratioP2;P2;SDS_P1;SDS_P2;PMS_P1;PMS_P2;Temp;Humidity;BMP_temperature;BMP_pressure;BME280_temperature;BME280_humidity;BME280_pressure;Samples;Min_cycle;Max_cycle;Signal;HPM_P1;HPM_P2
2022/05/28 00:00:41;;;;;;;;;8.25;8.25;;;;;17.70;40.70;101896.72;4941564;28;45335;-58
2022/05/28 00:03:07;;;;;;;;;6.75;6.75;;;;;17.67;40.61;101894.13;4941422;28;45462;-57
2022/05/28 00:05:32;;;;;;;;;9.25;6.75;;;;;17.63;40.63;101893.31;4940186;28;45239;-57
2022/05/28 00:07:58;;;;;;;;;8.25;6.25;;;;;17.60;40.79;101887.25;4941688;28;45590;-57
2022/05/28 00:10:23;;;;;;;;;9.50;6.25;;;;;17.58;40.94;101889.06;4941343;28;45477;-58
2022/05/28 00:12:49;;;;;;;;;8.50;6.50;;;;;17.55;40.67;101893.53;4941458;28;45354;-57
2022/05/28 00:15:15;;;;;;;;;7.75;6.00;;;;;17.49;40.66;101885.72;4941570;28;45348;-57
2022/05/28 00:17:41;;;;;;;;;6.00;5.00;;;;;17.50;41.04;101889.25;4941361;28;45322;-57
2022/05/28 00:20:07;;;;;;;;;7.25;6.25;;;;;17.46;41.10;101888.47;4941228;28;46187;-58
2022/05/28 00:22:43;;;;;;;;;7.50;7.50;;;;;17.44;40.87;101884.94;4941120;28;45228;-57
2022/05/28 00:25:11;;;;;;;;;7.50;6.50;;;;;17.38;40.77;101883.34;4941131;28;45442;-57
2022/05/28 00:27:38;;;;;;;;;8.50;8.50;;;;;17.39;41.07;101881.53;4941451;28;45485;-58
2022/05/28 00:30:05;;;;;;;;;9.75;7.75;;;;;17.37;41.08;101878.03;4941042;28;45367;-58
2022/05/28 00:32:30;;;;;;;;;6.00;5.00;;;;;17.33;40.98;101877.25;4940994;28;45252;-58
2022/05/28 00:34:56;;;;;;;;;5.50;5.50;;;;;17.29;41.10;101874.72;4941205;28;45237;-58
2022/05/28 00:37:22;;;;;;;;;10.25;6.75;;;;;17.28;41.31;101880.94;4941266;28;45175;-58
2022/05/28 00:39:47;;;;;;;;;11.75;8.00;;;;;17.22;41.33;101877.50;4940907;28;46056;-58
2022/05/28 00:42:12;;;;;;;;;8.75;8.00;;;;;17.23;41.51;101875.72;4941108;28;45246;-58
2022/05/28 00:44:38;;;;;;;;;5.50;5.50;;;;;17.20;41.29;101874.00;4941254;28;45311;-58
2022/05/28 00:47:04;;;;;;;;;7.25;6.00;;;;;17.19;41.51;101874.94;4941123;28;45596;-58
2022/05/28 00:49:32;;;;;;;;;8.00;7.00;;;;;17.17;41.39;101866.13;4939748;28;45252;-58
2022/05/28 00:52:01;;;;;;;;;5.75;5.00;;;;;17.14;41.83;101874.16;4929609;28;45344;-58
2022/05/28 00:54:34;;;;;;;;;8.00;6.25;;;;;17.11;41.52;101871.59;4939742;28;45590;-57
2022/05/28 00:57:01;;;;;;;;;5.00;5.00;;;;;17.10;41.43;101868.97;4941115;28;45351;-58
2022/05/28 00:59:27;;;;;;;;;7.50;7.50;;;;;17.06;41.95;101868.16;4940827;28;46420;-58
2022/05/28 01:01:58;;;;;;;;;8.00;8.00;;;;;17.04;41.93;101864.66;4940627;28;45466;-58
2022/05/28 01:04:44;;;;;;;;;9.25;8.00;;;;;17.02;41.92;101863.84;4940166;28;45351;-58
2022/05/28 01:07:36;;;;;;;;;5.00;5.00;;;;;16.99;42.08;101863.91;4955541;28;45343;-58
2022/05/28 01:10:15;;;;;;;;;8.75;7.25;;;;;16.96;42.08;101862.19;4940665;28;45384;-58
2022/05/28 01:12:55;;;;;;;;;6.00;5.00;;;;;16.94;42.27;101864.00;4940638;28;45180;-58
2022/05/28 01:15:45;;;;;;;;;11.50;9.00;;;;;16.93;41.89;101861.38;4955588;28;45285;-58
2022/05/28 01:18:13;;;;;;;;;8.00;6.00;;;;;16.90;42.20;101863.19;4941927;28;45241;-58
2022/05/28 01:20:44;;;;;;;;;7.75;6.00;;;;;16.88;42.06;101857.03;4943765;28;45255;-58
2022/05/28 01:23:25;;;;;;;;;6.75;6.00;;;;;16.86;42.24;101863.28;4943743;28;45288;-58
2022/05/28 01:26:18;;;;;;;;;7.25;7.00;;;;;16.84;42.25;101857.13;4931467;28;45248;-58
2022/05/28 01:29:08;;;;;;;;;7.25;7.00;;;;;16.80;42.27;101853.66;4943694;28;45324;-58
2022/05/28 01:31:35;;;;;;;;;7.50;7.50;;;;;16.78;42.49;101847.53;4940510;28;45323;-58
2022/05/28 01:34:05;;;;;;;;;5.00;4.50;;;;;16.76;42.62;101849.34;4943883;28;45323;-58
2022/05/28 01:36:33;;;;;;;;;6.25;6.25;;;;;16.74;42.62;101846.72;4943941;28;45555;-58
2022/05/28 01:38:59;;;;;;;;;7.00;6.00;;;;;16.72;42.52;101847.69;4943511;28;45492;-58
2022/05/28 01:41:29;;;;;;;;;7.25;6.00;;;;;16.71;42.69;101853.88;4943456;28;46132;-58
2022/05/28 01:43:56;;;;;;;;;11.50;9.75;;;;;16.66;42.85;101837.19;4943573;28;45413;-58
2022/05/28 01:46:27;;;;;;;;;9.50;7.25;;;;;16.67;42.68;101855.72;4942291;28;45371;-58
2022/05/28 01:48:55;;;;;;;;;9.00;8.50;;;;;16.63;42.57;101838.13;4942291;28;45258;-58
2022/05/28 01:51:23;;;;;;;;;7.75;7.75;;;;;16.63;42.72;101847.84;4930345;28;45405;-58
2022/05/28 01:54:09;;;;;;;;;8.25;5.50;;;;;16.61;42.94;101836.44;4943436;28;45482;-58
2022/05/28 01:56:37;;;;;;;;;7.00;7.00;;;;;16.55;42.81;101834.75;4943376;28;45352;-58
2022/05/28 01:59:03;;;;;;;;;6.75;6.00;;;;;16.55;43.07;101837.41;4943470;28;45262;-57
2022/05/28 02:01:28;;;;;;;;;8.00;7.75;;;;;16.53;42.90;101832.16;4957892;28;46023;-58
2022/05/28 02:03:57;;;;;;;;;9.50;6.75;;;;;16.52;42.68;101829.53;4941425;28;45149;-58
2022/05/28 02:06:24;;;;;;;;;10.50;9.00;;;;;16.50;43.31;101842.84;4945724;28;45316;-58
2022/05/28 02:08:51;;;;;;;;;8.75;8.00;;;;;16.49;43.22;101826.94;4942944;28;45459;-58
2022/05/28 02:11:20;;;;;;;;;10.25;7.25;;;;;16.47;43.17;101829.63;4943127;28;46594;-58
2022/05/28 02:13:59;;;;;;;;;10.25;7.00;;;;;16.45;43.11;101822.59;4943149;28;45243;-58
2022/05/28 02:16:48;;;;;;;;;10.25;8.25;;;;;16.43;43.47;101833.25;4943326;28;45331;-58
2022/05/28 02:19:25;;;;;;;;;8.50;6.25;;;;;16.40;43.33;101833.31;4943087;28;45462;-58
2022/05/28 02:22:01;;;;;;;;;7.75;7.75;;;;;16.37;43.16;101833.38;4942677;28;45469;-58
2022/05/28 02:24:51;;;;;;;;;9.75;8.25;;;;;16.36;43.43;101823.69;4941606;28;45398;-58
2022/05/28 02:27:20;;;;;;;;;7.75;6.50;;;;;16.33;43.55;101821.09;4942826;28;45536;-58
2022/05/28 02:29:46;;;;;;;;;8.00;7.50;;;;;16.29;43.48;101817.66;4941952;28;45369;-58
2022/05/28 02:32:20;;;;;;;;;7.25;6.75;;;;;16.31;43.50;101820.25;4942631;28;46311;-59
2022/05/28 02:34:46;;;;;;;;;9.75;5.75;;;;;16.29;43.88;101822.06;4943026;28;45607;-58
2022/05/28 02:37:15;;;;;;;;;7.50;5.75;;;;;16.27;43.81;101830.06;4943051;28;45418;-58
2022/05/28 02:39:41;;;;;;;;;7.75;5.75;;;;;16.27;43.68;101826.53;4942847;28;45367;-58
2022/05/28 02:42:06;;;;;;;;;9.25;7.25;;;;;16.24;43.98;101816.88;4942600;28;46032;-58
2022/05/28 02:44:32;;;;;;;;;8.25;6.50;;;;;16.21;43.69;101816.91;4942797;28;45233;-58
2022/05/28 02:46:57;;;;;;;;;11.00;7.25;;;;;16.21;43.69;101808.97;4941619;28;45280;-59
2022/05/28 02:49:23;;;;;;;;;8.00;8.00;;;;;16.19;43.79;101821.41;4942373;28;45370;-58
2022/05/28 02:51:49;;;;;;;;;8.25;8.25;;;;;16.19;43.86;101818.75;4930091;28;47065;-58
2022/05/28 02:54:15;;;;;;;;;7.75;6.50;;;;;16.17;43.78;101817.88;4942423;28;45247;-58
2022/05/28 02:56:40;;;;;;;;;8.75;6.50;;;;;16.15;44.02;101820.59;4942673;28;45960;-58
2022/05/28 02:59:05;;;;;;;;;6.25;5.00;;;;;16.14;43.93;101815.28;4942554;28;45280;-58
2022/05/28 03:01:33;;;;;;;;;12.25;8.50;;;;;16.09;43.71;101799.50;4940994;28;46976;-57
2022/05/28 03:04:00;;;;;;;;;10.00;7.25;;;;;16.07;44.12;101802.19;4940232;28;45337;-57
2022/05/28 03:06:26;;;;;;;;;6.75;5.75;;;;;16.08;44.02;101803.91;4942857;28;45308;-58
2022/05/28 03:08:52;;;;;;;;;7.00;6.50;;;;;16.07;44.36;101812.78;4942067;28;45362;-58
2022/05/28 03:11:17;;;;;;;;;10.50;9.25;;;;;16.06;44.08;101816.34;4942112;28;47267;-57
2022/05/28 03:13:43;;;;;;;;;15.00;11.25;;;;;16.04;44.02;101812.84;4942055;28;45328;-58
2022/05/28 03:16:10;;;;;;;;;8.75;6.75;;;;;16.03;43.94;101804.91;4942460;28;45180;-58
2022/05/28 03:18:36;;;;;;;;;11.25;8.00;;;;;16.02;44.31;101808.47;4942056;28;45403;-58
2022/05/28 03:21:01;;;;;;;;;6.25;6.25;;;;;15.99;44.27;101806.75;4942154;28;46213;-59
2022/05/28 03:23:27;;;;;;;;;12.00;10.00;;;;;15.98;44.25;101802.34;4941806;28;45494;-58
2022/05/28 03:25:52;;;;;;;;;10.25;7.75;;;;;15.97;44.29;101799.75;4956987;28;45302;-58
2022/05/28 03:28:17;;;;;;;;;13.25;11.75;;;;;15.92;44.35;101800.72;4942182;28;45454;-58
2022/05/28 03:30:43;;;;;;;;;10.50;8.25;;;;;15.92;44.44;101800.72;4941933;28;45462;-59
2022/05/28 03:33:08;;;;;;;;;8.75;8.25;;;;;15.91;44.34;101806.91;4941851;28;45284;-58
2022/05/28 03:35:34;;;;;;;;;11.75;9.75;;;;;15.91;44.35;101800.72;4942315;28;45260;-58
2022/05/28 03:38:01;;;;;;;;;12.50;8.50;;;;;15.87;44.63;101805.22;4941958;28;45688;-58
2022/05/28 03:40:27;;;;;;;;;9.75;8.75;;;;;15.87;44.93;101805.22;4941183;28;46351;-58
2022/05/28 03:42:52;;;;;;;;;9.00;8.25;;;;;15.85;44.40;101795.56;4940383;28;45176;-58
2022/05/28 03:45:18;;;;;;;;;11.00;7.75;;;;;15.84;44.66;101805.28;4942068;28;45300;-58
2022/05/28 03:47:43;;;;;;;;;6.50;6.50;;;;;15.79;44.71;101801.81;4941559;28;45228;-58
2022/05/28 03:50:08;;;;;;;;;7.50;5.25;;;;;15.81;45.08;101810.63;4950455;28;47022;-58
2022/05/28 03:52:34;;;;;;;;;11.75;8.50;;;;;15.77;44.98;101808.91;4940708;28;45873;-58
2022/05/28 03:55:00;;;;;;;;;76.00;59.00;;;;;15.78;44.61;101808.00;4941558;28;45289;-58
2022/05/28 03:57:31;;;;;;;;;18.75;16.75;;;;;15.76;45.19;101807.19;4941641;28;45472;-58
2022/05/28 03:59:57;;;;;;;;;9.25;8.00;;;;;15.75;44.71;101810.72;4941696;28;46108;-58
2022/05/28 04:02:24;;;;;;;;;10.50;10.00;;;;;15.74;44.79;101808.97;4941240;28;45287;-58
2022/05/28 04:04:49;;;;;;;;;10.75;10.75;;;;;15.73;44.79;101812.53;4939561;28;45373;-58
2022/05/28 04:07:16;;;;;;;;;10.00;9.00;;;;;15.70;45.34;101816.09;4941448;28;45505;-58
2022/05/28 04:09:42;;;;;;;;;12.00;10.00;;;;;15.70;45.27;101809.94;4941417;28;46892;-58
2022/05/28 04:12:07;;;;;;;;;11.75;10.50;;;;;15.69;44.95;101813.50;4941296;28;45343;-58
2022/05/28 04:14:32;;;;;;;;;10.75;10.00;;;;;15.68;44.92;101822.34;4956550;28;45446;-58
2022/05/28 04:16:58;;;;;;;;;12.25;11.50;;;;;15.67;45.35;101820.56;4941343;28;45422;-58
2022/05/28 04:19:23;;;;;;;;;16.00;11.25;;;;;15.65;45.35;101819.75;4941436;28;46232;-58
2022/05/28 04:21:49;;;;;;;;;13.00;9.25;;;;;15.65;45.15;101825.06;4941024;28;45412;-58
2022/05/28 04:24:14;;;;;;;;;8.75;7.50;;;;;15.63;45.62;101832.16;4941394;28;45474;-58
2022/05/28 04:26:40;;;;;;;;;12.25;9.75;;;;;15.61;45.17;101816.28;4941376;28;45491;-58
2022/05/28 04:29:06;;;;;;;;;16.25;12.00;;;;;15.60;45.17;101831.28;4941441;28;46996;-58
2022/05/28 04:31:31;;;;;;;;;11.50;8.25;;;;;15.58;45.67;101826.91;4941006;28;45244;-58
2022/05/28 04:33:57;;;;;;;;;11.75;11.00;;;;;15.59;45.29;101839.28;4941610;28;45311;-58
2022/05/28 04:36:22;;;;;;;;;10.50;6.50;;;;;15.57;45.52;101833.13;4941320;28;45189;-58
2022/05/28 04:38:48;;;;;;;;;10.75;10.00;;;;;15.56;45.65;101831.38;4941076;28;45412;-58
2022/05/28 04:41:13;;;;;;;;;9.75;9.75;;;;;15.55;45.92;101835.78;4955914;28;45567;-58
2022/05/28 04:43:39;;;;;;;;;16.75;12.50;;;;;15.55;45.88;101840.22;4941401;28;45237;-58
2022/05/28 04:46:05;;;;;;;;;13.00;11.00;;;;;15.50;45.41;101829.72;4923804;28;45272;-58
2022/05/28 04:48:31;;;;;;;;;13.25;9.75;;;;;15.54;45.80;101844.63;4941050;28;45433;-58
2022/05/28 04:50:56;;;;;;;;;12.25;11.00;;;;;15.54;45.83;101843.78;4928502;28;45407;-58
2022/05/28 04:53:21;;;;;;;;;14.75;12.00;;;;;15.54;46.00;101838.47;4942104;28;45571;-58
2022/05/28 04:55:47;;;;;;;;;13.25;12.00;;;;;15.53;45.90;101842.88;4944371;28;45262;-58
2022/05/28 04:58:13;;;;;;;;;13.75;12.50;;;;;15.54;45.98;101843.78;4944296;28;45347;-58
2022/05/28 05:00:39;;;;;;;;;11.75;9.75;;;;;15.53;45.64;101837.59;4944249;28;45318;-59
2022/05/28 05:03:05;;;;;;;;;13.75;12.75;;;;;15.54;45.72;101839.34;4944097;28;45414;-59
2022/05/28 05:05:30;;;;;;;;;18.00;11.25;;;;;15.51;46.06;101836.75;4940743;28;45311;-59
2022/05/28 05:07:56;;;;;;;;;13.00;13.00;;;;;15.52;45.80;101841.16;4944124;28;46139;-58
2022/05/28 05:10:21;;;;;;;;;13.50;12.25;;;;;15.54;46.06;101844.63;4944142;28;45439;-58
2022/05/28 05:12:47;;;;;;;;;15.50;12.75;;;;;15.56;45.65;101847.28;4944178;28;45216;-58
2022/05/28 05:15:12;;;;;;;;;18.50;16.50;;;;;15.56;45.84;101861.41;4944209;28;45243;-58
2022/05/28 05:17:38;;;;;;;;;23.25;23.25;;;;;15.55;45.88;101850.84;4943763;28;45207;-58
2022/05/28 05:20:05;;;;;;;;;12.50;11.75;;;;;15.57;45.83;101852.56;4942955;28;45358;-58
2022/05/28 05:22:30;;;;;;;;;11.75;10.25;;;;;15.57;46.37;101851.66;4943827;28;45532;-58
2022/05/28 05:24:57;;;;;;;;;16.00;10.50;;;;;15.59;46.37;101850.72;4943373;28;45468;-58
2022/05/28 05:27:23;;;;;;;;;15.75;11.50;;;;;15.60;46.33;101846.31;4956889;28;46518;-59
2022/05/28 05:29:48;;;;;;;;;10.00;8.50;;;;;15.58;46.40;101840.16;4943824;28;45329;-58
2022/05/28 05:32:13;;;;;;;;;13.00;11.25;;;;;15.62;46.43;101849.81;4943886;28;45433;-58
2022/05/28 05:34:39;;;;;;;;;13.00;11.00;;;;;15.63;46.18;101850.69;4943946;28;45324;-58
2022/05/28 05:37:05;;;;;;;;;14.50;12.25;;;;;15.65;46.42;101848.91;4943740;28;46094;-58
2022/05/28 05:39:31;;;;;;;;;11.50;11.00;;;;;15.66;46.36;101840.03;4943563;28;45318;-59
2022/05/28 05:41:56;;;;;;;;;11.67;10.67;;;;;15.67;46.27;101845.31;4943497;28;45263;-58
2022/05/28 05:44:22;;;;;;;;;11.00;10.25;;;;;15.69;46.12;101848.78;4943636;28;45236;-58
2022/05/28 05:46:48;;;;;;;;;14.25;9.25;;;;;15.70;46.53;101847.91;4943659;28;46055;-58
2022/05/28 05:49:13;;;;;;;;;10.50;9.00;;;;;15.71;46.11;101840.81;4943520;28;45478;-59
2022/05/28 05:51:44;;;;;;;;;10.50;6.00;;;;;15.71;46.38;101835.50;4930728;28;45528;-59
2022/05/28 05:54:11;;;;;;;;;15.50;11.50;;;;;15.70;46.67;101839.94;4943319;28;45473;-59
2022/05/28 05:56:37;;;;;;;;;13.25;10.75;;;;;15.72;46.53;101842.56;4943290;28;46277;-59
2022/05/28 05:59:02;;;;;;;;;16.25;12.50;;;;;15.73;46.60;101845.19;4943462;28;45199;-59
2022/05/28 06:01:28;;;;;;;;;11.00;9.25;;;;;15.75;46.13;101847.81;4943340;28;45335;-58
2022/05/28 06:03:53;;;;;;;;;10.75;9.50;;;;;15.77;46.19;101840.69;4941261;28;45496;-58
2022/05/28 06:06:20;;;;;;;;;10.25;9.25;;;;;15.79;46.40;101841.56;4942674;28;46088;-58
2022/05/28 06:08:46;;;;;;;;;11.00;9.50;;;;;15.81;46.18;101836.22;4943055;28;45342;-57
2022/05/28 06:11:12;;;;;;;;;15.75;12.75;;;;;15.82;46.46;101841.53;4943240;28;45322;-57
2022/05/28 06:13:37;;;;;;;;;14.50;12.25;;;;;15.86;46.51;101839.69;4943204;28;45527;-57
2022/05/28 06:16:04;;;;;;;;;15.75;12.25;;;;;15.88;46.16;101848.50;4942992;28;46131;-56
2022/05/28 06:18:30;;;;;;;;;12.50;11.75;;;;;15.89;46.30;101839.66;4943138;28;45402;-57
2022/05/28 06:20:56;;;;;;;;;8.50;7.00;;;;;15.91;46.69;101843.13;4930809;28;45326;-57
2022/05/28 06:23:22;;;;;;;;;12.75;11.25;;;;;15.96;46.75;101843.03;4942260;28;45492;-58
2022/05/28 06:25:47;;;;;;;;;12.00;8.25;;;;;15.95;46.38;101839.53;4942991;28;46855;-57
2022/05/28 06:28:13;;;;;;;;;11.25;9.00;;;;;15.97;46.67;101836.84;4943018;28;45322;-58
2022/05/28 06:30:40;;;;;;;;;14.50;10.75;;;;;16.00;46.44;101840.31;4943100;28;45501;-57
2022/05/28 06:33:06;;;;;;;;;15.25;13.00;;;;;16.02;46.63;101840.28;4941537;28;45380;-58
2022/05/28 06:35:32;;;;;;;;;12.25;11.75;;;;;16.07;46.57;101843.72;4942823;28;45982;-57
2022/05/28 06:37:58;;;;;;;;;11.25;10.50;;;;;16.11;46.66;101844.53;4942792;28;45316;-57
2022/05/28 06:40:24;;;;;;;;;11.00;9.75;;;;;16.11;46.45;101837.44;4942703;28;45314;-60
2022/05/28 06:42:51;;;;;;;;;12.75;8.50;;;;;16.17;46.29;101844.41;4942771;28;45329;-59
2022/05/28 06:45:17;;;;;;;;;11.00;8.75;;;;;16.18;46.49;101843.50;4942707;28;46356;-67
2022/05/28 06:47:46;;;;;;;;;12.00;9.00;;;;;16.23;46.25;101846.94;4942577;28;45259;-60
2022/05/28 06:52:57;;;;;;;;;13.00;10.25;;;;;16.29;46.65;101843.28;4939056;28;45446;-58
2022/05/28 06:55:23;;;;;;;;;11.25;8.50;;;;;16.32;46.49;101837.91;4942330;28;46201;-58
2022/05/28 06:57:49;;;;;;;;;13.00;11.50;;;;;16.35;46.51;101837.84;4942543;28;45329;-58
2022/05/28 07:00:15;;;;;;;;;8.25;8.25;;;;;16.38;46.24;101838.66;4942950;28;45343;-58
2022/05/28 07:02:40;;;;;;;;;9.50;8.50;;;;;16.41;46.33;101843.03;4942096;28;45462;-59
2022/05/28 07:05:06;;;;;;;;;3.00;2.00;;;;;16.40;46.71;101835.97;4939192;28;47197;-65
2022/05/28 07:07:31;;;;;;;;;14.00;10.00;;;;;16.42;46.66;101827.06;4942021;28;45415;-58
2022/05/28 07:09:57;;;;;;;;;12.75;8.25;;;;;16.46;46.71;101830.53;4942402;28;45845;-57
2022/05/28 07:12:22;;;;;;;;;13.00;11.25;;;;;16.53;46.74;101839.25;4940700;28;45335;-58
2022/05/28 07:14:47;;;;;;;;;10.25;9.50;;;;;16.53;46.44;101837.47;4942516;28;45291;-62
2022/05/28 07:17:13;;;;;;;;;10.50;8.25;;;;;16.60;46.49;101837.31;4941455;28;45225;-59
2022/05/28 07:19:38;;;;;;;;;17.00;12.00;;;;;16.63;46.57;101826.63;4942265;28;45232;-59
2022/05/28 07:22:04;;;;;;;;;14.25;10.50;;;;;16.69;46.59;101831.81;4941873;28;45246;-62
2022/05/28 07:24:29;;;;;;;;;17.50;15.25;;;;;16.73;46.71;101834.38;4956718;28;46876;-58
2022/05/28 07:26:54;;;;;;;;;15.50;14.00;;;;;16.76;46.81;101832.56;4940860;28;45571;-57
2022/05/28 07:29:20;;;;;;;;;14.75;13.00;;;;;16.81;46.52;101831.53;4941081;28;45298;-58
2022/05/28 07:31:45;;;;;;;;;15.00;13.00;;;;;16.85;46.41;101832.34;4941602;28;45610;-58
2022/05/28 07:34:12;;;;;;;;;10.75;10.25;;;;;16.87;46.46;101825.22;4942031;28;46101;-58
2022/05/28 07:36:37;;;;;;;;;9.50;9.50;;;;;16.93;46.58;101827.75;4941900;28;45347;-58
2022/05/28 07:39:03;;;;;;;;;9.25;9.00;;;;;16.93;46.42;101814.50;4941849;28;45315;-58
2022/05/28 07:41:29;;;;;;;;;10.00;8.00;;;;;17.01;46.77;101819.63;4941596;28;45553;-58
2022/05/28 07:43:56;;;;;;;;;14.50;13.25;;;;;17.04;47.06;101816.88;4941445;28;45470;-57
2022/05/28 07:46:27;;;;;;;;;15.75;13.00;;;;;17.10;46.80;101815.88;4941659;28;45359;-56
2022/05/28 07:48:57;;;;;;;;;12.25;11.50;;;;;17.13;46.74;101816.66;4940530;28;45377;-56
2022/05/28 07:51:23;;;;;;;;;13.00;9.50;;;;;17.18;46.57;101820.06;4928350;28;45175;-57
2022/05/28 07:53:48;;;;;;;;;13.75;12.25;;;;;17.23;46.62;101817.28;4955972;28;46482;-57
2022/05/28 07:56:14;;;;;;;;;9.00;9.00;;;;;17.23;46.69;101806.66;4941700;28;45268;-58
2022/05/28 07:58:40;;;;;;;;;15.50;8.50;;;;;17.28;46.40;101811.88;4941858;28;45323;-58
2022/05/28 08:01:07;;;;;;;;;12.50;8.00;;;;;17.33;46.44;101817.94;4956030;28;45534;-58
2022/05/28 08:13:53;;;;;;;;;12.00;9.00;;;;;17.52;46.34;101805.94;5711842;23;46620;-52
2022/05/28 08:16:19;;;;;;;;;10.25;10.25;;;;;17.58;46.11;101812.00;4961495;28;45383;-52
2022/05/28 08:23:58;;;;;;;;;11.00;8.75;;;;;17.67;46.27;101803.75;4938981;28;45356;-58
2022/05/28 08:26:24;;;;;;;;;13.50;9.25;;;;;17.72;46.25;101804.50;4940980;28;45231;-56
2022/05/28 08:28:52;;;;;;;;;16.75;10.75;;;;;17.75;46.38;101801.78;4943336;28;45300;-56
2022/05/28 08:31:18;;;;;;;;;8.75;7.50;;;;;17.82;46.17;101811.34;4944505;28;45421;-55
2022/05/28 08:33:44;;;;;;;;;12.25;8.00;;;;;17.85;46.00;101808.56;4944397;28;45379;-57
2022/05/28 08:36:10;;;;;;;;;11.00;8.75;;;;;17.91;46.00;101804.00;4944685;28;45546;-54
2022/05/28 08:38:45;;;;;;;;;12.75;7.50;;;;;17.96;45.93;101804.78;4944377;28;45453;-58
2022/05/28 08:41:33;;;;;;;;;12.50;8.75;;;;;18.03;45.84;101809.00;4943668;28;45422;-54
2022/05/28 08:44:29;;;;;;;;;13.50;10.00;;;;;18.07;45.74;101805.34;4943822;28;45570;-54
2022/05/28 08:47:08;;;;;;;;;11.75;7.75;;;;;18.14;45.82;101809.56;4934061;28;45454;-69
2022/05/28 08:49:37;;;;;;;;;12.00;8.75;;;;;18.17;45.67;101806.81;4942722;28;45396;-62
2022/05/28 08:52:11;;;;;;;;;10.75;10.00;;;;;18.27;45.72;101801.22;4941278;28;45335;-56
2022/05/28 08:54:56;;;;;;;;;11.75;9.50;;;;;18.34;45.62;101800.16;4943922;28;46395;-65
2022/05/28 08:57:37;;;;;;;;;9.00;7.50;;;;;18.41;45.70;101793.69;4943148;28;45332;-50
2022/05/28 09:00:14;;;;;;;;;8.75;6.25;;;;;18.47;45.61;101785.53;4937092;28;45335;-53
2022/05/28 09:02:45;;;;;;;;;11.50;8.50;;;;;18.57;45.32;101788.78;4942536;28;45488;-68
2022/05/28 09:05:27;;;;;;;;;9.50;8.00;;;;;18.69;45.32;101792.84;4942353;28;45308;-53
2022/05/28 09:56:04;;;;;;;;;11.00;8.75;;;;;20.83;44.24;101719.38;5252455;23;45679;-53
2022/05/28 09:58:36;;;;;;;;;9.00;7.00;;;;;21.05;44.10;101723.81;4982165;28;45562;-54
2022/05/28 10:01:06;;;;;;;;;7.00;6.00;;;;;21.14;43.82;101715.38;4978694;28;45441;-53
2022/05/28 10:08:42;;;;;;;;;9.25;7.50;;;;;21.54;43.00;101715.44;5682808;23;46424;-49
2022/05/28 10:11:14;;;;;;;;;9.75;7.25;;;;;21.63;43.09;101722.22;4977719;28;45993;-53
2022/05/28 10:13:44;;;;;;;;;10.75;7.25;;;;;21.70;43.11;101721.84;4981924;28;45733;-73
2022/05/28 10:16:10;;;;;;;;;9.50;7.50;;;;;21.79;42.92;101717.91;4981937;28;45395;-57
2022/05/28 10:18:55;;;;;;;;;7.50;7.50;;;;;21.89;43.15;101723.69;4967153;28;45339;-52
2022/05/28 10:21:29;;;;;;;;;7.25;7.00;;;;;22.05;43.07;101719.34;4980214;28;46338;-59
2022/05/28 10:24:01;;;;;;;;;8.50;7.25;;;;;22.26;42.95;101713.06;4963208;28;45408;-50
2022/05/28 10:26:38;;;;;;;;;10.75;7.25;;;;;22.47;42.65;101709.34;4962517;28;45195;-59
2022/05/28 10:34:34;;;;;;;;;6.50;5.50;;;;;23.32;42.58;101702.41;5726121;23;46697;-63
2022/05/28 10:37:19;;;;;;;;;7.75;4.00;;;;;23.64;42.54;101705.16;4961654;28;45449;-63
2022/05/28 10:39:47;;;;;;;;;8.75;7.00;;;;;23.89;42.42;101695.78;4959796;28;45600;-60
2022/05/28 10:42:14;;;;;;;;;7.00;6.33;;;;;24.23;42.09;101699.28;4960828;28;45437;-56
2022/05/28 10:44:42;;;;;;;;;6.75;5.00;;;;;24.54;42.17;101693.97;4952916;28;45251;-55
2022/05/28 10:47:13;;;;;;;;;7.50;6.75;;;;;24.85;41.84;101690.38;4942580;28;45579;-54
2022/05/28 10:50:04;;;;;;;;;7.00;7.00;;;;;25.26;41.81;101689.69;4942324;28;45362;-55
2022/05/28 10:52:41;;;;;;;;;7.75;5.75;;;;;25.67;41.72;101684.53;4942185;28;45446;-56
2022/05/28 10:55:22;;;;;;;;;6.00;4.25;;;;;26.07;41.50;101688.25;4930455;28;45419;-55
2022/05/28 10:58:06;;;;;;;;;6.00;6.00;;;;;26.50;41.23;101681.00;4942400;28;45164;-57
2022/05/28 11:00:43;;;;;;;;;5.75;5.00;;;;;26.81;41.12;101681.66;4942554;28;45573;-57
2022/05/28 11:03:54;;;;;;;;;7.25;6.00;;;;;27.23;40.42;101675.13;4935661;28;45345;-57
2022/05/28 15:23:24;;;;;;;;;1.00;1.00;;;;;36.53;26.24;101450.88;6025612;23;46515;31
2022/05/28 15:25:51;;;;;;;;;4.00;2.00;;;;;36.20;26.12;101450.94;4912799;28;45227;-60
2022/05/28 15:28:17;;;;;;;;;2.25;0.50;;;;;35.87;26.04;101442.75;4928043;28;45510;-59
2022/05/28 15:30:43;;;;;;;;;1.75;1.75;;;;;35.52;26.03;101446.66;4925557;28;45362;-59
2022/05/28 15:33:15;;;;;;;;;1.75;1.50;;;;;35.12;26.21;101447.28;4928678;28;45365;-60
2022/05/28 15:38:26;;;;;;;;;1.25;1.00;;;;;34.30;25.75;101439.53;4904201;28;45378;-60
2022/05/28 15:40:58;;;;;;;;;1.00;1.00;;;;;33.90;25.86;101434.66;4907702;28;45178;-60
2022/05/28 15:43:24;;;;;;;;;3.00;1.25;;;;;33.51;25.68;101425.81;4900338;28;45433;-59
2022/05/28 15:45:49;;;;;;;;;2.00;2.00;;;;;33.14;25.90;101425.91;4915665;28;45193;-60
2022/05/28 15:48:15;;;;;;;;;3.75;2.50;;;;;32.78;26.13;101440.31;4904830;28;46190;-60
2022/05/28 15:50:41;;;;;;;;;3.75;1.75;;;;;32.42;26.06;101442.88;4915538;28;45328;-62
2022/05/28 15:53:10;;;;;;;;;3.00;2.00;;;;;32.09;25.60;101429.63;4897210;29;45526;-62
2022/05/28 15:55:39;;;;;;;;;2.50;1.25;;;;;31.79;25.90;101435.22;4910068;28;45435;-62
2022/05/28 15:58:11;;;;;;;;;3.00;2.75;;;;;31.48;26.01;101422.63;4908051;28;46383;-61
2022/05/28 16:00:37;;;;;;;;;2.50;1.00;;;;;31.20;25.79;101429.78;4914717;28;45409;-61
2022/05/28 16:03:04;;;;;;;;;2.75;1.00;;;;;30.93;26.24;101426.69;4879769;29;45342;-61
2022/05/28 16:05:37;;;;;;;;;2.00;2.00;;;;;30.67;25.80;101431.75;4909753;28;45306;-62
2022/05/28 16:08:10;;;;;;;;;2.00;2.00;;;;;30.38;26.11;101418.88;4901185;28;45321;-60
2022/05/28 16:10:37;;;;;;;;;3.25;1.00;;;;;30.08;26.08;101415.16;4903379;28;45476;-60
2022/05/28 16:13:03;;;;;;;;;4.00;3.00;;;;;29.83;25.94;101421.81;4897611;28;45195;-61
2022/05/28 16:15:28;;;;;;;;;2.00;2.00;;;;;29.61;26.17;101406.50;4902191;28;45500;-60
2022/05/28 16:17:54;;;;;;;;;4.00;3.00;;;;;29.43;25.96;101398.97;4897268;28;46273;-61
2022/05/28 16:20:20;;;;;;;;;5.00;2.25;;;;;29.26;26.08;101402.19;4902360;28;45294;-61
2022/05/28 16:22:45;;;;;;;;;6.25;4.00;;;;;29.08;26.08;101413.59;4887252;28;45475;-63
2022/05/28 16:25:11;;;;;;;;;2.00;2.00;;;;;28.90;26.08;101402.41;4903827;28;45379;-61
2022/05/28 16:27:36;;;;;;;;;2.75;2.75;;;;;28.72;26.22;101404.78;4897679;28;47692;-62
2022/05/28 16:30:05;;;;;;;;;4.25;2.75;;;;;28.53;26.48;101405.38;4903335;28;45557;-62
2022/05/28 16:32:31;;;;;;;;;2.00;0.50;;;;;28.33;26.21;101399.72;4903760;28;45287;-62
2022/05/28 16:34:56;;;;;;;;;1.75;1.50;;;;;28.19;26.40;101398.09;4894355;28;45397;-62
2022/05/28 16:37:23;;;;;;;;;2.75;2.75;;;;;28.10;26.13;101387.16;4888950;28;45991;-62
2022/05/28 16:39:49;;;;;;;;;3.00;3.00;;;;;28.00;26.08;101384.28;4893442;28;45363;-63
2022/05/28 16:42:17;;;;;;;;;4.00;2.50;;;;;27.97;26.33;101379.97;4888934;28;45322;-63
2022/05/28 16:44:45;;;;;;;;;2.00;2.00;;;;;27.94;26.60;101373.97;4894173;28;45355;-63
2022/05/28 16:47:11;;;;;;;;;2.75;2.00;;;;;27.92;25.99;101381.34;4881992;28;45538;-62
2022/05/28 16:49:36;;;;;;;;;3.50;3.50;;;;;27.90;26.77;101374.22;4905601;28;45526;-63
2022/05/28 16:52:02;;;;;;;;;2.25;2.25;;;;;27.92;26.54;101371.38;4903134;28;45248;-63
2022/05/28 16:54:28;;;;;;;;;1.50;1.50;;;;;27.93;26.62;101373.09;4904876;28;45260;-62
2022/05/28 16:56:53;;;;;;;;;4.00;3.00;;;;;27.95;26.45;101367.59;4903589;28;46117;-62
2022/05/28 16:59:18;;;;;;;;;1.00;1.00;;;;;27.94;26.04;101379.34;4904640;28;45240;-61
2022/05/28 17:01:44;;;;;;;;;1.75;1.00;;;;;27.90;26.65;101386.88;4897100;28;45302;-61